19°C Temp
6°C Dewpoint
% Humidity
Temperature
10 KM/H
6 MPH
5 KTS
240°
West South
West

Wind Speed
Clear
Conditions
Pressure 1017.92 (hPa) - 30.06 (in)
Visibility 6.2 (mi) - 10.0 (km)

Current Conditions
YBBN
Location 15(km)
Metar :YBBN 060000Z 24005KT CAVOK 19/06 Q1018 FM0200 03010KT CAVOK
Thu 6th August 10:00 am

Airport
  Metar Aviation API Data Provided by https://www.checkwx.com/ PHP scripts by weather34.com ©2020